Time;durP1;ratioP1;P1;durP2;ratioP2;P2;SDS_P1;SDS_P2;PMS_P1;PMS_P2;Temp;Humidity;BMP_temperature;BMP_pressure;BME280_temperature;BME280_humidity;BME280_pressure;Samples;Min_cycle;Max_cycle;Signal;HPM_P1;HPM_P2
2024/01/26 00:00:25;;;;;;;17.10;7.73;;;;;;;5.99;100.00;102301.97;6197293;28;20834;-71
2024/01/26 00:03:46;;;;;;;12.30;7.03;;;;;;;5.83;100.00;102292.91;6206919;28;20584;-71
2024/01/26 00:07:08;;;;;;;12.13;7.47;;;;;;;5.83;100.00;102287.56;6200687;28;20321;-71
2024/01/26 00:10:30;;;;;;;12.43;8.60;;;;;;;5.86;100.00;102289.25;6196805;28;20643;-71
2024/01/26 00:13:52;;;;;;;23.83;8.13;;;;;;;5.84;100.00;102277.75;6215907;28;20229;-71
2024/01/26 00:17:13;;;;;;;21.37;9.20;;;;;;;5.62;100.00;102272.50;6193617;28;20740;-71
2024/01/26 00:20:34;;;;;;;11.27;6.67;;;;;;;5.81;100.00;102275.19;6204121;28;20226;-71
2024/01/26 00:23:54;;;;;;;14.53;7.27;;;;;;;5.94;100.00;102271.03;6187037;28;20660;-72
2024/01/26 00:27:15;;;;;;;15.50;9.10;;;;;;;5.93;100.00;102255.91;6199910;28;20236;-71
2024/01/26 00:30:38;;;;;;;18.53;8.87;;;;;;;6.16;100.00;102251.19;6189373;28;20711;-72
2024/01/26 00:33:59;;;;;;;22.60;8.70;;;;;;;5.93;100.00;102254.09;6190879;28;20513;-72
2024/01/26 00:37:20;;;;;;;16.60;7.80;;;;;;;6.06;100.00;102252.59;6202398;28;20225;-72
2024/01/26 00:40:41;;;;;;;13.77;8.80;;;;;;;6.14;100.00;102250.41;6194629;28;20244;-71
2024/01/26 00:44:02;;;;;;;18.17;9.37;;;;;;;6.27;100.00;102256.91;6205993;28;20232;-71
2024/01/26 00:47:24;;;;;;;15.20;7.10;;;;;;;6.05;100.00;102250.00;6197889;28;20229;-71
2024/01/26 00:50:46;;;;;;;15.90;9.03;;;;;;;5.92;100.00;102243.47;6192515;28;20241;-71
2024/01/26 00:54:07;;;;;;;17.53;8.77;;;;;;;5.91;100.00;102245.28;6191416;28;20611;-71
2024/01/26 00:57:28;;;;;;;12.57;6.67;;;;;;;5.97;100.00;102231.59;6191521;28;20225;-71
2024/01/26 01:00:49;;;;;;;14.40;8.17;;;;;;;5.86;100.00;102228.56;6190590;28;20652;-72
2024/01/26 01:04:11;;;;;;;17.77;8.50;;;;;;;6.14;100.00;102231.66;6205209;28;20228;-72
2024/01/26 01:07:32;;;;;;;11.47;7.37;;;;;;;6.08;100.00;102228.41;6205231;28;20233;-71
2024/01/26 01:10:53;;;;;;;24.33;9.37;;;;;;;5.99;100.00;102218.13;6202262;28;20225;-71
2024/01/26 01:14:14;;;;;;;13.50;7.50;;;;;;;6.06;100.00;102219.59;6211909;28;20307;-71
2024/01/26 01:17:35;;;;;;;18.27;8.80;;;;;;;6.00;100.00;102217.22;6192051;28;20229;-71
2024/01/26 01:20:57;;;;;;;16.87;8.60;;;;;;;5.99;100.00;102215.47;6185561;28;20233;-71
2024/01/26 01:24:18;;;;;;;15.97;9.77;;;;;;;6.07;100.00;102215.97;6210483;28;20233;-71
2024/01/26 01:27:39;;;;;;;16.23;7.93;;;;;;;6.13;100.00;102221.88;6202715;28;20607;-70
2024/01/26 01:31:00;;;;;;;23.47;9.90;;;;;;;6.02;100.00;102208.19;6190338;28;20502;-71
2024/01/26 01:34:23;;;;;;;22.27;9.90;;;;;;;6.03;100.00;102206.38;6196159;28;20252;-71
2024/01/26 01:37:45;;;;;;;18.73;8.70;;;;;;;6.05;100.00;102197.28;6186922;28;20226;-71
2024/01/26 01:41:06;;;;;;;19.57;7.83;;;;;;;6.15;100.00;102195.06;6184733;28;20324;-72
2024/01/26 01:44:27;;;;;;;14.50;8.57;;;;;;;6.13;100.00;102191.59;6192959;28;20238;-72
2024/01/26 01:47:48;;;;;;;15.80;10.40;;;;;;;6.20;100.00;102184.97;6185033;28;20230;-72
2024/01/26 01:51:09;;;;;;;18.30;9.90;;;;;;;6.23;100.00;102176.78;6184148;28;20253;-72
2024/01/26 01:54:32;;;;;;;22.07;11.03;;;;;;;6.16;100.00;102168.19;6193302;28;20228;-71
2024/01/26 01:57:55;;;;;;;29.10;8.77;;;;;;;6.02;100.00;102175.19;6188796;28;20565;-71
2024/01/26 02:01:16;;;;;;;27.63;9.83;;;;;;;6.00;100.00;102171.72;6190981;28;20237;-72
2024/01/26 02:04:37;;;;;;;21.23;8.23;;;;;;;6.19;100.00;102162.72;6195061;28;20240;-71
2024/01/26 02:07:58;;;;;;;17.63;9.40;;;;;;;6.13;100.00;102156.78;6199152;28;20245;-71
2024/01/26 02:11:21;;;;;;;24.07;10.17;;;;;;;5.93;100.00;102152.41;6200119;28;20232;-71
2024/01/26 02:14:42;;;;;;;17.40;11.27;;;;;;;5.94;100.00;102142.56;6207407;28;20256;-71
2024/01/26 02:18:04;;;;;;;17.60;9.10;;;;;;;6.12;100.00;102133.63;6201064;28;20229;-71
2024/01/26 02:21:25;;;;;;;17.83;10.93;;;;;;;6.05;100.00;102130.38;6197324;28;20315;-72
2024/01/26 02:24:47;;;;;;;20.77;8.87;;;;;;;5.90;100.00;102130.28;6198451;28;20225;-72
2024/01/26 02:28:08;;;;;;;15.37;8.30;;;;;;;6.10;100.00;102124.81;6207710;28;20531;-72
2024/01/26 02:31:28;;;;;;;23.70;9.27;;;;;;;6.26;100.00;102129.31;6190513;28;20229;-72
2024/01/26 02:34:50;;;;;;;27.17;10.60;;;;;;;6.33;100.00;102117.34;6206743;28;20236;-72
2024/01/26 02:38:11;;;;;;;15.70;9.53;;;;;;;6.12;100.00;102106.84;6211049;28;20229;-72
2024/01/26 02:41:33;;;;;;;14.80;8.80;;;;;;;6.06;100.00;102105.38;6198546;28;20228;-73
2024/01/26 02:44:54;;;;;;;15.97;9.30;;;;;;;6.03;100.00;102108.19;6206499;28;20241;-72
2024/01/26 02:48:15;;;;;;;24.20;10.33;;;;;;;6.02;100.00;102111.81;6203260;28;20232;-71
2024/01/26 02:51:36;;;;;;;26.17;11.80;;;;;;;6.17;100.00;102118.22;6191583;28;20237;-72
2024/01/26 02:54:57;;;;;;;13.63;10.43;;;;;;;6.03;100.00;102113.53;6200247;28;20240;-72
2024/01/26 02:58:19;;;;;;;19.03;11.03;;;;;;;5.98;100.00;102104.88;6208818;28;20808;-72
2024/01/26 03:01:41;;;;;;;23.37;9.33;;;;;;;5.94;100.00;102092.59;6188206;28;20324;-72
2024/01/26 03:05:01;;;;;;;19.67;9.83;;;;;;;5.90;100.00;102084.81;6203245;28;20229;-72
2024/01/26 03:08:22;;;;;;;24.63;10.23;;;;;;;5.97;100.00;102070.16;6201045;28;20234;-72
2024/01/26 03:11:44;;;;;;;19.60;9.77;;;;;;;5.99;100.00;102070.94;6194551;28;20233;-72
2024/01/26 03:15:07;;;;;;;17.63;8.87;;;;;;;6.00;100.00;102067.34;6195867;28;20233;-72
2024/01/26 03:18:27;;;;;;;14.60;9.67;;;;;;;6.11;100.00;102056.97;6197205;28;20233;-72
2024/01/26 03:21:48;;;;;;;19.07;9.90;;;;;;;6.06;100.00;102053.63;6194906;28;20230;-72
2024/01/26 03:25:09;;;;;;;27.70;11.07;;;;;;;6.08;100.00;102038.38;6204509;28;20237;-71
2024/01/26 03:28:30;;;;;;;20.00;10.17;;;;;;;6.10;100.00;102033.78;6201874;28;20229;-71
2024/01/26 03:31:52;;;;;;;23.23;12.33;;;;;;;6.00;100.00;102029.88;6183750;28;20312;-71
2024/01/26 03:35:13;;;;;;;25.33;12.00;;;;;;;6.06;100.00;102033.09;6200455;28;20240;-71
2024/01/26 03:38:34;;;;;;;18.13;10.30;;;;;;;6.05;100.00;102023.31;6214982;28;20516;-71
2024/01/26 03:41:55;;;;;;;20.77;11.70;;;;;;;6.18;100.00;102028.91;6197224;28;20308;-71
2024/01/26 03:45:16;;;;;;;20.43;11.77;;;;;;;6.22;100.00;102039.38;6191653;28;20249;-71
2024/01/26 03:48:39;;;;;;;21.83;11.90;;;;;;;6.24;100.00;102034.81;6214745;28;20474;-72
2024/01/26 03:52:00;;;;;;;23.93;12.43;;;;;;;6.18;100.00;102029.78;6202872;28;20507;-72
2024/01/26 03:55:21;;;;;;;22.37;13.30;;;;;;;6.23;100.00;102025.06;6196268;28;20228;-72
2024/01/26 03:58:44;;;;;;;20.83;10.70;;;;;;;6.38;100.00;102026.91;6208905;28;20225;-71
2024/01/26 04:02:05;;;;;;;24.97;11.73;;;;;;;6.45;100.00;102011.38;6197913;28;20262;-71
2024/01/26 04:05:27;;;;;;;27.23;13.10;;;;;;;6.48;100.00;102008.56;6200429;28;20229;-71
2024/01/26 04:08:48;;;;;;;18.73;12.97;;;;;;;6.51;100.00;102019.09;6208101;28;20229;-71
2024/01/26 04:12:09;;;;;;;23.13;13.90;;;;;;;6.47;100.00;102012.16;6172273;28;20318;-71
2024/01/26 04:15:30;;;;;;;22.10;14.50;;;;;;;6.54;100.00;102010.91;6193011;28;20713;-71
2024/01/26 04:18:51;;;;;;;18.67;10.83;;;;;;;6.55;100.00;101995.69;6208554;28;20237;-72
2024/01/26 04:22:13;;;;;;;23.20;10.87;;;;;;;6.41;100.00;101986.59;6200791;28;20232;-72
2024/01/26 04:25:34;;;;;;;18.13;9.83;;;;;;;6.49;100.00;101982.66;6199428;28;20229;-72
2024/01/26 04:28:55;;;;;;;13.23;9.93;;;;;;;6.52;100.00;101986.00;6213218;28;20229;-71
2024/01/26 04:32:16;;;;;;;15.30;11.07;;;;;;;6.53;100.00;101962.78;6178463;28;20252;-72
2024/01/26 04:35:37;;;;;;;17.83;9.63;;;;;;;6.56;100.00;101954.56;6203556;28;20588;-72
2024/01/26 04:39:01;;;;;;;14.47;9.83;;;;;;;6.53;100.00;101962.78;6207543;28;20233;-73
2024/01/26 04:42:22;;;;;;;15.47;11.33;;;;;;;6.39;100.00;101947.44;6195895;28;20316;-72
2024/01/26 04:45:43;;;;;;;18.27;10.77;;;;;;;6.42;100.00;101941.94;6198007;28;20225;-72
2024/01/26 04:49:04;;;;;;;17.80;10.77;;;;;;;6.45;100.00;101936.38;6204995;28;20237;-71
2024/01/26 04:52:26;;;;;;;17.17;10.70;;;;;;;6.44;100.00;101926.66;6195332;28;20253;-72
2024/01/26 04:55:48;;;;;;;18.70;11.40;;;;;;;6.60;100.00;101926.66;6195122;28;20240;-72
2024/01/26 04:59:09;;;;;;;13.47;10.80;;;;;;;6.65;100.00;101929.94;6209933;28;20813;-72
2024/01/26 05:02:30;;;;;;;14.63;12.30;;;;;;;6.71;100.00;101918.88;6185886;28;20241;-73
2024/01/26 05:05:51;;;;;;;19.13;11.67;;;;;;;6.68;100.00;101911.00;6185047;28;20598;-71
2024/01/26 05:09:14;;;;;;;16.33;9.87;;;;;;;6.70;100.00;101901.94;6184530;28;20233;-72
2024/01/26 05:12:36;;;;;;;20.23;11.50;;;;;;;6.81;100.00;101882.56;6180257;28;20228;-72
2024/01/26 05:15:57;;;;;;;28.67;13.10;;;;;;;6.83;100.00;101875.31;6189517;28;20754;-72
2024/01/26 05:19:18;;;;;;;18.53;11.40;;;;;;;6.81;100.00;101869.19;6208981;28;20259;-72
2024/01/26 05:22:39;;;;;;;19.00;12.83;;;;;;;6.82;100.00;101858.34;6197253;28;21630;-72
2024/01/26 05:26:01;;;;;;;20.77;13.37;;;;;;;6.92;100.00;101856.91;6186002;28;20229;-73
2024/01/26 05:29:25;;;;;;;17.80;13.70;;;;;;;6.99;100.00;101841.28;6208130;28;20303;-71
2024/01/26 05:32:45;;;;;;;23.30;14.73;;;;;;;7.01;100.00;101831.34;6192830;28;20233;-72
2024/01/26 05:36:07;;;;;;;25.97;13.57;;;;;;;7.07;100.00;101822.97;6188188;28;20328;-72
2024/01/26 05:39:28;;;;;;;21.10;15.23;;;;;;;7.01;100.00;101821.50;6202784;28;20319;-72
2024/01/26 05:42:49;;;;;;;22.03;14.43;;;;;;;6.97;100.00;101811.03;6201063;28;20232;-72
2024/01/26 05:46:12;;;;;;;30.63;14.63;;;;;;;7.02;100.00;101811.66;6200972;28;20225;-71
2024/01/26 05:49:33;;;;;;;21.40;14.43;;;;;;;6.98;100.00;101792.22;6204127;28;20229;-71
2024/01/26 05:52:54;;;;;;;22.23;13.77;;;;;;;7.00;100.00;101798.34;6199289;28;20221;-72
2024/01/26 05:56:15;;;;;;;23.90;14.97;;;;;;;7.07;100.00;101788.97;6197646;28;20230;-72
2024/01/26 05:59:37;;;;;;;23.37;14.63;;;;;;;7.20;100.00;101799.81;6202460;28;20237;-71
2024/01/26 06:03:01;;;;;;;26.27;15.50;;;;;;;7.25;100.00;101787.88;6182304;28;20287;-72
2024/01/26 06:06:21;;;;;;;23.13;15.00;;;;;;;7.36;100.00;101789.91;6193027;28;20229;-72
2024/01/26 06:09:42;;;;;;;25.50;14.60;;;;;;;7.33;100.00;101773.13;6177693;28;20237;-72
2024/01/26 06:13:03;;;;;;;30.60;16.93;;;;;;;7.30;100.00;101771.50;6180613;28;20289;-73
2024/01/26 06:16:24;;;;;;;24.10;16.10;;;;;;;7.35;100.00;101763.16;6192412;28;20241;-72
2024/01/26 06:19:46;;;;;;;23.70;16.80;;;;;;;7.38;100.00;101749.59;6203422;28;20229;-71
2024/01/26 06:23:07;;;;;;;25.83;18.03;;;;;;;7.43;100.00;101736.72;6200849;28;20622;-71
2024/01/26 06:26:28;;;;;;;22.37;16.77;;;;;;;7.34;100.00;101722.09;6198018;28;20256;-71
2024/01/26 06:29:49;;;;;;;25.37;16.53;;;;;;;7.37;100.00;101740.66;6200109;28;20237;-71
2024/01/26 06:33:10;;;;;;;23.63;14.53;;;;;;;7.35;100.00;101731.84;6198674;28;20242;-72
2024/01/26 06:36:32;;;;;;;25.30;16.93;;;;;;;7.37;100.00;101734.44;6195128;28;20711;-71
2024/01/26 06:39:55;;;;;;;23.13;16.30;;;;;;;7.28;100.00;101723.31;6198617;28;20336;-72
2024/01/26 06:43:16;;;;;;;33.10;15.67;;;;;;;7.28;100.00;101714.41;6195982;28;20237;-70
2024/01/26 06:46:37;;;;;;;21.17;15.90;;;;;;;7.31;100.00;101697.25;6187240;28;20232;-69
2024/01/26 06:49:58;;;;;;;23.63;16.03;;;;;;;7.29;100.00;101710.78;6195503;28;20767;-72
2024/01/26 06:53:21;;;;;;;27.60;15.60;;;;;;;7.26;100.00;101697.53;6178648;28;20237;-70
2024/01/26 06:56:41;;;;;;;24.47;14.80;;;;;;;7.32;100.00;101685.59;6154727;28;20236;-70
2024/01/26 07:00:03;;;;;;;24.07;15.07;;;;;;;7.25;100.00;101669.03;6181431;28;20236;-72
2024/01/26 07:03:25;;;;;;;21.77;14.50;;;;;;;7.28;100.00;101652.72;6176651;28;20233;-72
2024/01/26 07:06:45;;;;;;;23.57;16.40;;;;;;;7.28;100.00;101658.09;6176018;28;20275;-72
2024/01/26 07:10:09;;;;;;;29.23;15.80;;;;;;;7.30;100.00;101649.97;6174801;28;20238;-72
2024/01/26 07:13:29;;;;;;;24.47;14.63;;;;;;;7.31;100.00;101649.00;6180628;28;20237;-71
2024/01/26 07:16:51;;;;;;;25.10;14.37;;;;;;;7.53;100.00;101652.06;6169926;28;20233;-71
2024/01/26 07:20:12;;;;;;;26.47;16.27;;;;;;;7.43;100.00;101649.06;6177339;28;20260;-69
2024/01/26 07:23:34;;;;;;;25.57;17.10;;;;;;;7.48;100.00;101646.97;6196883;28;20498;-71
2024/01/26 07:26:56;;;;;;;24.43;15.93;;;;;;;7.44;100.00;101642.78;6196623;28;20343;-73
2024/01/26 07:30:18;;;;;;;25.03;16.43;;;;;;;7.53;100.00;101635.97;6188199;28;20226;-70
2024/01/26 07:33:39;;;;;;;23.23;16.93;;;;;;;7.63;100.00;101624.53;6191659;28;20233;-68
2024/01/26 07:37:00;;;;;;;23.10;16.83;;;;;;;7.68;100.00;101611.66;6199269;28;20230;-70
2024/01/26 07:40:21;;;;;;;23.77;17.37;;;;;;;7.71;100.00;101594.50;6166047;28;20229;-71
2024/01/26 07:43:43;;;;;;;28.30;17.63;;;;;;;7.82;100.00;101590.16;6200537;28;20237;-69
2024/01/26 07:47:04;;;;;;;25.20;17.67;;;;;;;7.78;100.00;101585.94;6198319;28;20229;-69
2024/01/26 07:50:25;;;;;;;24.43;18.33;;;;;;;7.92;100.00;101577.00;6204860;28;20922;-69
2024/01/26 07:53:46;;;;;;;23.90;18.63;;;;;;;8.04;100.00;101587.78;6208532;28;20622;-71
2024/01/26 07:57:07;;;;;;;22.03;17.37;;;;;;;8.13;100.00;101572.88;6200899;28;20328;-70
2024/01/26 08:00:30;;;;;;;25.00;19.87;;;;;;;8.18;100.00;101548.41;6187349;28;20248;-69
2024/01/26 08:03:50;;;;;;;21.73;17.33;;;;;;;8.28;100.00;101545.00;6198802;28;20249;-69
2024/01/26 08:07:11;;;;;;;22.73;16.37;;;;;;;8.32;100.00;101535.78;6195731;28;20237;-69
2024/01/26 08:10:32;;;;;;;20.07;17.63;;;;;;;8.44;100.00;101526.88;6192834;28;20384;-70
2024/01/26 08:13:53;;;;;;;27.27;18.90;;;;;;;8.50;100.00;101514.81;6204798;28;20233;-71
2024/01/26 08:17:16;;;;;;;17.10;14.97;;;;;;;8.58;100.00;101521.38;6190979;28;20238;-70
2024/01/26 08:20:37;;;;;;;21.07;17.40;;;;;;;8.71;100.00;101524.94;6205597;28;22885;-73
2024/01/26 08:23:58;;;;;;;21.43;17.40;;;;;;;8.78;100.00;101511.94;6181257;28;20605;-72
2024/01/26 08:27:19;;;;;;;20.77;18.57;;;;;;;8.86;100.00;101502.31;6200281;28;20233;-72
2024/01/26 08:30:41;;;;;;;18.43;16.43;;;;;;;9.05;100.00;101480.38;6201605;28;20606;-72
2024/01/26 08:34:04;;;;;;;20.03;15.93;;;;;;;8.97;100.00;101471.13;6208822;28;20622;-71
2024/01/26 08:37:24;;;;;;;19.37;14.63;;;;;;;9.14;100.00;101463.53;6201062;28;20863;-70
2024/01/26 08:40:45;;;;;;;16.67;14.50;;;;;;;9.11;100.00;101444.94;6204587;28;20266;-71
2024/01/26 08:44:06;;;;;;;17.07;15.07;;;;;;;9.11;100.00;101444.09;6209746;28;20341;-71
2024/01/26 08:47:27;;;;;;;15.40;13.30;;;;;;;9.04;100.00;101440.97;6172424;28;20241;-69
2024/01/26 08:50:51;;;;;;;18.17;14.00;;;;;;;9.02;100.00;101440.22;6184601;28;20712;-69
2024/01/26 08:54:12;;;;;;;15.13;12.60;;;;;;;9.10;100.00;101445.03;6192205;28;20611;-69
2024/01/26 08:57:33;;;;;;;16.87;14.90;;;;;;;9.01;100.00;101433.13;6181767;28;20234;-70
2024/01/26 09:00:54;;;;;;;17.17;13.60;;;;;;;9.07;100.00;101423.75;6182029;28;20225;-70
2024/01/26 09:04:16;;;;;;;17.00;14.80;;;;;;;9.04;100.00;101416.78;6185039;28;20233;-71
2024/01/26 09:07:38;;;;;;;18.10;15.40;;;;;;;9.04;100.00;101395.25;6186677;28;20233;-69
2024/01/26 09:10:59;;;;;;;17.97;15.87;;;;;;;9.09;100.00;101401.19;6178583;28;20245;-70
2024/01/26 09:14:20;;;;;;;16.90;13.20;;;;;;;9.10;100.00;101400.19;6184801;28;20254;-69
2024/01/26 09:17:41;;;;;;;16.30;14.50;;;;;;;9.05;100.00;101396.13;6176592;28;20233;-69
2024/01/26 09:21:02;;;;;;;14.17;12.00;;;;;;;9.11;100.00;101383.09;6168295;28;20320;-69
2024/01/26 09:24:25;;;;;;;12.93;11.60;;;;;;;9.12;100.00;101374.03;6190826;28;20240;-70
2024/01/26 09:27:46;;;;;;;14.73;13.23;;;;;;;9.13;100.00;101378.47;6177535;28;20261;-70
2024/01/26 09:31:07;;;;;;;11.53;10.30;;;;;;;9.20;100.00;101358.19;6175326;28;20328;-68
2024/01/26 09:34:28;;;;;;;14.93;11.60;;;;;;;9.16;100.00;101343.25;6183846;28;20528;-69
2024/01/26 09:37:49;;;;;;;14.87;13.47;;;;;;;9.12;100.00;101338.19;6165311;28;20228;-69
2024/01/26 09:41:11;;;;;;;12.63;11.33;;;;;;;9.19;100.00;101344.84;6180478;28;20257;-68
2024/01/26 09:44:32;;;;;;;10.57;9.47;;;;;;;9.27;100.00;101331.66;6194573;28;20251;-69
2024/01/26 09:47:53;;;;;;;13.00;10.80;;;;;;;9.18;100.00;101311.69;6202339;28;20288;-70
2024/01/26 09:51:14;;;;;;;12.27;10.97;;;;;;;9.20;100.00;101320.50;6191067;28;20233;-70
2024/01/26 09:54:35;;;;;;;11.37;8.70;;;;;;;9.23;100.00;101323.00;6208229;28;20229;-68
2024/01/26 09:57:57;;;;;;;12.63;9.87;;;;;;;9.25;100.00;101309.41;6199868;28;20684;-69
2024/01/26 10:01:23;;;;;;;11.10;9.87;;;;;;;9.26;100.00;101314.66;6191675;28;20230;-70
2024/01/26 10:04:44;;;;;;;9.97;9.07;;;;;;;9.31;100.00;101299.03;6201157;28;20253;-69
2024/01/26 10:08:08;;;;;;;8.00;7.20;;;;;;;9.41;100.00;101297.34;6195074;28;20662;-68
2024/01/26 10:11:30;;;;;;;8.83;7.93;;;;;;;9.43;100.00;101299.91;6197603;28;20557;-69
2024/01/26 10:15:03;;;;;;;10.47;9.47;;;;;;;9.46;100.00;101287.09;6180871;28;20232;-69
2024/01/26 10:18:24;;;;;;;8.87;7.97;;;;;;;9.56;100.00;101282.72;6198187;28;20244;-70
2024/01/26 10:21:47;;;;;;;7.47;6.77;;;;;;;9.56;100.00;101281.84;6187868;28;20511;-69
2024/01/26 10:25:09;;;;;;;9.73;6.73;;;;;;;9.59;98.09;101263.66;6199131;28;20252;-69
2024/01/26 10:28:30;;;;;;;8.13;7.37;;;;;;;9.59;94.22;101252.00;6202849;28;20260;-68
2024/01/26 10:31:52;;;;;;;5.27;4.33;;;;;;;9.72;90.17;101257.28;6193714;28;20245;-69
2024/01/26 10:35:16;;;;;;;6.43;5.83;;;;;;;9.80;89.63;101253.00;6188507;28;20242;-70
2024/01/26 10:38:38;;;;;;;4.30;3.90;;;;;;;9.84;89.11;101251.78;6205857;28;20233;-72
2024/01/26 10:42:04;;;;;;;6.27;5.77;;;;;;;9.88;87.94;101241.63;6198459;28;20233;-71
2024/01/26 10:45:25;;;;;;;5.70;5.23;;;;;;;9.90;85.85;101236.97;6200730;28;20718;-74
2024/01/26 10:48:48;;;;;;;5.10;4.70;;;;;;;9.86;84.74;101236.38;6213467;28;20737;-69
2024/01/26 10:52:10;;;;;;;4.50;4.10;;;;;;;9.90;83.55;101232.44;6199632;28;20260;-69
2024/01/26 10:55:31;;;;;;;3.60;3.30;;;;;;;9.87;83.08;101229.97;6196842;28;20690;-69
2024/01/26 10:58:52;;;;;;;4.73;4.20;;;;;;;9.86;80.64;101214.81;6200588;28;20610;-70
2024/01/26 11:02:16;;;;;;;5.10;4.60;;;;;;;9.89;78.68;101203.78;6202397;28;20229;-69
2024/01/26 11:05:39;;;;;;;5.00;4.30;;;;;;;9.89;75.43;101198.41;6200662;28;20823;-69
2024/01/26 11:09:03;;;;;;;4.80;4.40;;;;;;;9.90;74.16;101194.75;6203247;28;20650;-71
2024/01/26 11:12:25;;;;;;;4.47;3.83;;;;;;;9.96;71.80;101190.69;6187379;28;20237;-69
2024/01/26 11:15:47;;;;;;;4.13;3.73;;;;;;;9.96;65.20;101177.22;6164268;28;20225;-70
2024/01/26 11:19:08;;;;;;;3.70;3.40;;;;;;;9.97;52.73;101177.09;6171531;28;20998;-69
2024/01/26 11:22:34;;;;;;;3.77;3.47;;;;;;;10.00;42.58;101187.63;6171497;28;20234;-69
2024/01/26 11:25:58;;;;;;;5.17;4.77;;;;;;;10.03;32.16;101173.06;6171381;28;20326;-69
2024/01/26 11:29:19;;;;;;;6.07;5.27;;;;;;;10.08;28.60;101162.75;6184229;28;21324;-70
2024/01/26 11:32:40;;;;;;;4.53;4.10;;;;;;;10.13;26.94;101166.84;6169252;28;20316;-70
2024/01/26 11:36:03;;;;;;;6.00;5.50;;;;;;;10.15;26.20;101148.69;6170967;28;20241;-68
2024/01/26 11:39:26;;;;;;;4.40;4.10;;;;;;;10.19;25.28;101166.31;6170404;28;20237;-69
2024/01/26 11:42:48;;;;;;;6.03;5.43;;;;;;;10.16;23.85;101155.78;6173334;28;20292;-68
2024/01/26 11:46:10;;;;;;;7.27;5.63;;;;;;;10.16;21.26;101200.72;6171895;28;21643;-68
2024/01/26 11:49:31;;;;;;;5.67;5.13;;;;;;;10.12;18.57;101210.91;6200013;28;20229;-72
2024/01/26 11:52:52;;;;;;;3.60;3.07;;;;;;;10.09;18.34;101231.81;6198260;28;20257;-71
2024/01/26 11:56:15;;;;;;;1.63;1.50;;;;;;;9.94;26.30;101246.50;6197415;28;20237;-71
2024/01/26 11:59:36;;;;;;;1.50;1.40;;;;;;;10.00;40.48;101254.97;6205266;28;20264;-69
2024/01/26 12:02:58;;;;;;;2.80;1.50;;;;;;;9.94;55.30;101247.38;6195351;28;20236;-68
2024/01/26 12:06:19;;;;;;;4.37;2.20;;;;;;;9.78;82.82;101281.03;6206891;28;20224;-69
2024/01/26 12:09:40;;;;;;;3.70;1.60;;;;;;;9.67;100.00;101281.88;6207660;28;20244;-68
2024/01/26 12:13:04;;;;;;;6.50;2.63;;;;;;;9.44;100.00;101278.28;6194365;28;20240;-69
2024/01/26 12:16:25;;;;;;;6.33;2.40;;;;;;;9.34;100.00;101309.59;6181035;28;20237;-69
2024/01/26 12:19:45;;;;;;;7.50;4.73;;;;;;;9.35;100.00;101294.28;6189568;28;20225;-68
2024/01/26 12:23:15;;;;;;;6.77;2.70;;;;;;;9.27;100.00;101316.41;6178800;28;20241;-69
2024/01/26 12:26:36;;;;;;;12.03;3.47;;;;;;;9.23;100.00;101323.00;6161554;28;20229;-69
2024/01/26 12:29:59;;;;;;;12.97;4.13;;;;;;;9.19;100.00;101339.47;6185643;28;20226;-68
2024/01/26 12:33:20;;;;;;;10.60;3.13;;;;;;;9.06;100.00;101342.22;6179698;28;20995;-67
2024/01/26 12:36:41;;;;;;;8.43;3.77;;;;;;;9.04;100.00;101357.63;6164608;28;20237;-67
2024/01/26 12:40:02;;;;;;;8.57;2.93;;;;;;;8.95;100.00;101357.47;6181624;28;20590;-69
2024/01/26 12:43:23;;;;;;;9.53;3.13;;;;;;;8.91;100.00;101372.09;6189698;28;20224;-67
2024/01/26 12:46:46;;;;;;;12.23;4.13;;;;;;;8.89;100.00;101349.84;6177614;28;20316;-68
2024/01/26 12:50:08;;;;;;;14.97;4.30;;;;;;;8.88;100.00;101378.56;6189182;28;20232;-69
2024/01/26 12:53:31;;;;;;;8.40;3.80;;;;;;;8.80;100.00;101368.34;6205175;28;20224;-68
2024/01/26 12:56:52;;;;;;;6.60;3.07;;;;;;;8.78;100.00;101372.16;6204072;28;20674;-69
2024/01/26 13:00:15;;;;;;;9.00;3.87;;;;;;;8.79;100.00;101373.84;6192550;28;20241;-72
2024/01/26 13:03:37;;;;;;;5.43;2.80;;;;;;;8.72;100.00;101376.13;6191150;28;20327;-73
2024/01/26 13:07:00;;;;;;;5.93;3.27;;;;;;;8.83;100.00;101378.03;6192303;28;20225;-72
2024/01/26 13:10:21;;;;;;;6.43;3.20;;;;;;;8.72;100.00;101408.38;6185793;28;21666;-74
2024/01/26 13:13:41;;;;;;;6.93;2.40;;;;;;;8.61;100.00;101391.31;6205377;28;20237;-72
2024/01/26 13:17:03;;;;;;;6.13;2.77;;;;;;;8.59;100.00;101395.94;6193632;28;20233;-74
2024/01/26 13:20:25;;;;;;;7.90;3.43;;;;;;;8.43;100.00;101417.66;6198308;28;21166;-73
2024/01/26 13:23:46;;;;;;;14.50;4.53;;;;;;;8.51;100.00;101431.41;6189187;28;20772;-74
2024/01/26 13:27:07;;;;;;;12.30;3.83;;;;;;;8.43;100.00;101427.56;6202035;28;20526;-72
2024/01/26 13:30:28;;;;;;;10.10;3.70;;;;;;;8.48;100.00;101415.53;6187556;28;20690;-72
2024/01/26 13:33:49;;;;;;;11.40;4.90;;;;;;;8.55;100.00;101435.59;6193436;28;20237;-73
2024/01/26 13:37:11;;;;;;;12.33;5.63;;;;;;;8.45;100.00;101417.59;6194846;28;20230;-73
2024/01/26 13:40:32;;;;;;;8.27;3.80;;;;;;;8.48;100.00;101452.28;6184935;28;20257;-73
2024/01/26 13:43:53;;;;;;;8.43;3.13;;;;;;;8.46;100.00;101448.84;6210653;28;20327;-71
2024/01/26 13:47:14;;;;;;;12.50;4.43;;;;;;;8.44;100.00;101467.75;6195582;28;20229;-72
2024/01/26 13:50:35;;;;;;;9.63;4.00;;;;;;;8.53;100.00;101452.81;6199113;28;20240;-73
2024/01/26 13:53:58;;;;;;;9.47;3.67;;;;;;;8.31;100.00;101450.78;6197005;28;20302;-72
2024/01/26 13:57:20;;;;;;;11.23;3.60;;;;;;;8.34;100.00;101479.25;6193603;28;20331;-71
2024/01/26 14:00:41;;;;;;;7.63;4.33;;;;;;;8.32;100.00;101491.94;6181288;28;20249;-72
2024/01/26 14:04:04;;;;;;;4.37;2.93;;;;;;;8.19;100.00;101542.06;6198841;28;20233;-70
2024/01/26 14:07:26;;;;;;;9.17;3.30;;;;;;;8.05;100.00;101502.72;6191697;28;20236;-72
2024/01/26 14:10:48;;;;;;;10.53;4.27;;;;;;;7.98;100.00;101520.22;6181854;28;20690;-73
2024/01/26 14:14:10;;;;;;;6.63;4.33;;;;;;;7.88;100.00;101511.94;6201817;28;20233;-73
2024/01/26 14:17:30;;;;;;;11.73;4.20;;;;;;;7.89;100.00;101536.94;6190355;28;20241;-72
2024/01/26 14:20:53;;;;;;;10.10;3.90;;;;;;;7.87;100.00;101555.81;6188261;28;20229;-73
2024/01/26 14:24:14;;;;;;;4.30;2.77;;;;;;;7.77;100.00;101578.88;6201109;28;20245;-73
2024/01/26 14:27:36;;;;;;;11.20;3.03;;;;;;;7.79;100.00;101592.19;6186577;28;20233;-72
2024/01/26 14:30:57;;;;;;;9.00;3.87;;;;;;;7.81;100.00;101599.19;6180684;28;20561;-72
2024/01/26 14:34:18;;;;;;;16.10;4.70;;;;;;;7.81;100.00;101611.72;6188868;28;20241;-73
2024/01/26 14:37:40;;;;;;;5.03;2.97;;;;;;;7.79;100.00;101600.25;6182556;28;20308;-79
2024/01/26 14:41:01;;;;;;;10.37;3.40;;;;;;;7.90;100.00;101657.63;6175521;28;20618;-73
2024/01/26 14:44:23;;;;;;;8.53;3.47;;;;;;;7.85;100.00;101683.03;6184501;28;20228;-73
2024/01/26 14:47:45;;;;;;;6.97;4.37;;;;;;;7.84;100.00;101668.75;6165123;28;20230;-73
2024/01/26 14:51:08;;;;;;;7.80;2.97;;;;;;;7.82;100.00;101664.47;6166493;28;20246;-74
2024/01/26 14:54:29;;;;;;;7.80;3.67;;;;;;;7.76;100.00;101692.53;6157375;28;20229;-72
2024/01/26 14:57:52;;;;;;;13.17;5.63;;;;;;;7.70;100.00;101718.91;6173015;28;20769;-72
2024/01/26 15:01:14;;;;;;;16.13;5.53;;;;;;;7.75;100.00;101728.41;6155414;28;20237;-71
2024/01/26 15:04:35;;;;;;;14.37;5.87;;;;;;;7.79;100.00;101745.16;6177351;28;20229;-73
2024/01/26 15:07:55;;;;;;;18.33;6.47;;;;;;;7.70;100.00;101743.94;6139292;28;20639;-73
2024/01/26 15:11:17;;;;;;;14.03;4.30;;;;;;;7.70;100.00;101768.06;6170038;28;20233;-72
2024/01/26 15:14:39;;;;;;;11.93;4.07;;;;;;;7.68;100.00;101780.72;6188504;28;20229;-73
2024/01/26 15:18:01;;;;;;;11.17;5.17;;;;;;;7.72;100.00;101790.31;6175026;28;20246;-72
2024/01/26 15:21:22;;;;;;;14.43;5.67;;;;;;;7.71;100.00;101807.38;6188865;28;20316;-73
2024/01/26 15:24:43;;;;;;;18.67;7.07;;;;;;;7.62;100.00;101809.75;6193491;28;20300;-73